• Join FlightAware (Why Join?)
  • Login
  • US Flag 
01:06PM EDT


 

Airport Tracker/Info


-or-


 

Live Flight TrackerFlight Track Log ✈ N960DL ✈ 22-Jun-2013 ✈ KATL - KSTL

Flight Track Log - Related Links

Times and Time Zones

All times are in EDT time to prevent confusion due to time zone crossing. See the N960DL flight status page for this flight to view local times or setup timezone preferences in your user account.

Time Position Orientation Groundspeed Altitude Reporting Facility
EDT Latitude Longitude Course Direction KTS MPH feet Rate Location/Type
11:58AM 33.6500 -84.3833 North 164 189 2,300  Level Atlanta TRACON
11:59AM 33.6500 -84.3167 90° East 244 281 4,200 2,520 Climbing Atlanta TRACON
12:00PM 33.9043 -84.5750 342° North  Level FlightAware Approximate
12:00PM 33.6833 -84.2167 68° East 278 320 7,600  Level Atlanta TRACON
12:01PM 34.0172 -84.6201 342° North  Level FlightAware Approximate
12:01PM 33.7333 -84.1833 29° Northeast 303 349 9,900  Level Atlanta TRACON
12:02PM 34.1300 -84.6652 342° North  Level FlightAware Approximate
12:02PM 33.8333 -84.2000 352° North 373 429 10,700  Level Atlanta TRACON
12:03PM 34.2443 -84.7000 North  Level FlightAware Approximate
12:04PM 34.0108 -84.4122 315° West 420 483 15,800  Level Atlanta Center
12:05PM 34.1042 -84.5256 315° West 415 478 18,400 2,220 Climbing Atlanta Center
12:06PM 34.1789 -84.6189 314° West 429 494 20,300 1,920 Climbing Atlanta Center
12:07PM 34.2683 -84.7175 318° Northwest 429 494 22,300 1,920 Climbing Atlanta Center
12:08PM 34.3869 -84.7714 339° North 434 499 24,200 1,920 Climbing Atlanta Center
12:09PM 34.5036 -84.8228 340° North 447 514 26,200 2,040 Climbing Atlanta Center
12:10PM 34.6344 -84.8819 340° North 454 522 28,300 1,800 Climbing Atlanta Center
12:11PM 34.7469 -84.9336 339° North 448 516 29,900 1,560 Climbing Atlanta Center
12:12PM 34.8633 -84.9856 340° North 443 510 31,500 1,260 Climbing Atlanta Center
12:13PM 34.9653 -85.0297 340° North 443 510 32,500 900 Climbing Atlanta Center
12:14PM 35.0797 -85.0819 340° North 443 510 33,400 840 Climbing Atlanta Center
12:16PM 35.2153 -85.2564 314° West 439 505 34,700 720 Climbing Memphis Center
12:17PM 35.2953 -85.3786 309° West 450 518 35,300 540 Climbing Memphis Center
12:18PM 35.3731 -85.4986 309° West 456 525 35,800 300 Climbing Memphis Center
12:19PM 35.4528 -85.6189 309° West 456 525 36,000 60 Climbing Memphis Center
12:20PM 35.5308 -85.7472 307° West 466 536 36,000  Level Memphis Center
12:21PM 35.5981 -85.8814 302° West 466 536 36,000  Level Memphis Center
12:22PM 35.6639 -86.0258 299° West 471 542 36,000  Level Memphis Center
12:23PM 35.7269 -86.1633 299° West 471 542 36,000  Level Memphis Center
12:24PM 35.7897 -86.2983 300° West 464 534 36,000  Level Memphis Center
12:25PM 35.8528 -86.4386 299° West 464 534 36,000  Level Memphis Center
12:26PM 35.9219 -86.5917 299° West 464 534 36,000  Level Memphis Center
12:27PM 35.9867 -86.7322 300° West 464 534 36,000  Level Memphis Center
12:28PM 36.0469 -86.8708 298° West 471 542 36,000  Level Memphis Center
12:29PM 36.1114 -87.0144 299° West 471 542 36,000  Level Memphis Center
12:30PM 36.1778 -87.1558 300° West 471 542 36,000  Level Memphis Center
12:31PM 36.2372 -87.2794 301° West 471 542 36,000  Level Memphis Center
12:32PM 36.3008 -87.4186 300° West 466 536 36,000  Level Memphis Center
12:33PM 36.3647 -87.5608 299° West 466 536 36,000  Level Memphis Center
12:34PM 36.4261 -87.6978 299° West 471 542 36,000  Level Memphis Center
12:35PM 36.4872 -87.8378 299° West 465 535 36,000  Level Memphis Center
12:36PM 36.5506 -87.9781 299° West 470 541 36,000  Level Memphis Center
12:37PM 36.6031 -88.1056 297° West 465 535 36,000 -240 Level Memphis Center
12:38PM 36.6703 -88.2564 299° West 465 535 35,600 -840 Descending Memphis Center
12:39PM 36.7331 -88.3944 300° West 465 535 34,400 -840 Descending Memphis Center
12:40PM 36.7933 -88.5331 299° West 465 535 34,000 -240 Descending Memphis Center
12:41PM 36.8539 -88.6794 297° West 470 541 34,000  Level Memphis Center
12:42PM 36.9161 -88.8233 298° West 470 541 34,000  Level Memphis Center
12:43PM 36.9761 -88.9650 298° West 470 541 34,000  Level Memphis Center
12:44PM 37.0381 -89.1119 298° West 470 541 34,000 -2,100 Level Memphis Center
12:46PM 37.1778 -89.4500 297° West 470 541 27,200 -2,460 Descending Kansas City Center
12:47PM 37.2519 -89.5811 305° West 471 542 26,000 -600 Descending Kansas City Center
12:48PM 37.3686 -89.6519 334° Northwest 468 539 26,000  Level Kansas City Center
12:49PM 37.4883 -89.7178 336° Northwest 469 540 26,000 -480 Level Kansas City Center
12:50PM 37.6211 -89.7908 336° Northwest 471 542 25,100 -1,980 Descending Kansas City Center
12:51PM 37.7383 -89.8556 336° Northwest 464 534 22,000 -2,640 Descending Kansas City Center
12:52PM 37.8611 -89.9228 337° Northwest 447 514 19,700 -1,680 Descending Kansas City Center
12:53PM 37.9592 -89.9769 336° Northwest 386 444 18,600 -1,740 Descending Kansas City Center
12:54PM 38.0592 -90.0308 337° Northwest 364 419 16,200 -1,800 Descending Kansas City Center
12:55PM 38.1558 -90.0853 336° Northwest 368 423 15,000 -1,440 Descending Kansas City Center
12:56PM 38.2522 -90.1381 337° Northwest 375 432 13,300 -2,040 Descending Kansas City Center
12:57PM 38.3442 -90.1900 336° Northwest 368 423 10,800 -1,500 Descending Kansas City Center
12:58PM 38.4350 -90.2400 337° Northwest 348 400 10,200 -1,020 Descending Kansas City Center
01:00PM 38.5058 -90.2797 336° Northwest 290 334 8,800 -1,080 Descending Kansas City Center
01:01PM 38.5800 -90.3211 336° Northwest 289 333 8,000 -540 Descending Kansas City Center
01:02PM 38.6647 -90.3706 336° Northwest 290 334 7,800 -720 Descending Kansas City Center
01:03PM 38.6994 -90.4456 301° West 292 336 6,600 -1,440 Descending Kansas City Center
01:04PM 38.7408 -90.5372 300° West 258 297 4,900 -1,260 Descending Kansas City Center
01:05PM 38.7717 -90.6036 301° West 228 262 4,000 -900 Descending Kansas City Center